Time;durP1;ratioP1;P1;durP2;ratioP2;P2;SDS_P1;SDS_P2;PMS_P1;PMS_P2;Temp;Humidity;BMP_temperature;BMP_pressure;BME280_temperature;BME280_humidity;BME280_pressure;Samples;Min_cycle;Max_cycle;Signal;HPM_P1;HPM_P2
2023/04/18 00:49:15;;;;;;;12.73;11.63;;;;;;;;;;4917182;29;20052;-81
2023/04/18 00:54:53;;;;;;;12.90;11.80;;;;;;;;;;4923828;23;20047;-80
2023/04/18 00:57:46;;;;;;;12.18;11.18;;;;;;;;;;4922014;29;20035;-81
2023/04/18 01:00:16;;;;;;;16.27;14.80;;;;;;;;;;4900059;29;20049;-81
2023/04/18 01:02:42;;;;;;;12.80;11.80;;;;;;;;;;4897104;29;20100;-81
2023/04/18 01:05:09;;;;;;;14.13;12.80;;;;;;;;;;4919018;29;20017;-80
2023/04/18 01:07:36;;;;;;;17.05;15.13;;;;;;;;;;4902123;29;20036;-80
2023/04/18 01:10:03;;;;;;;12.43;11.32;;;;;;;;;;4897453;29;20052;-80
2023/04/18 01:12:28;;;;;;;18.13;16.33;;;;;;;;;;4917359;29;20088;-81
2023/04/18 01:14:54;;;;;;;15.05;13.65;;;;;;;;;;4931444;29;20158;-80
2023/04/18 01:17:21;;;;;;;14.38;13.02;;;;;;;;;;4924176;29;20024;-81
2023/04/18 01:19:48;;;;;;;12.85;11.68;;;;;;;;;;4930390;29;20016;-81
2023/04/18 01:22:16;;;;;;;13.95;12.68;;;;;;;;;;4916099;29;20036;-80
2023/04/18 01:24:41;;;;;;;16.63;15.20;;;;;;;;;;4936290;29;20028;-82
2023/04/18 01:27:12;;;;;;;13.85;12.68;;;;;;;;;;4919700;29;20011;-81
2023/04/18 01:29:38;;;;;;;13.80;12.63;;;;;;;;;;4911740;23;20140;-81
2023/04/18 01:32:03;;;;;;;16.65;15.05;;;;;;;;;;4881984;29;20040;-82
2023/04/18 01:34:35;;;;;;;15.82;14.45;;;;;;;;;;4895379;29;20025;-80
2023/04/18 01:37:02;;;;;;;15.82;14.63;;;;;;;;;;4879164;29;20031;-79
2023/04/18 01:39:28;;;;;;;15.80;14.43;;;;;;;;;;4883803;29;20076;-80
2023/04/18 01:41:53;;;;;;;16.95;15.43;;;;;;;;;;4897140;29;20100;-82
2023/04/18 01:44:18;;;;;;;16.23;14.98;;;;;;;;;;4897132;29;20025;-80
2023/04/18 01:46:44;;;;;;;18.95;17.27;;;;;;;;;;4891561;29;20037;-80
2023/04/18 01:49:09;;;;;;;17.45;15.93;;;;;;;;;;4878162;29;20462;-82
2023/04/18 01:51:37;;;;;;;20.98;19.00;;;;;;;;;;4898822;29;20023;-81
2023/04/18 01:54:03;;;;;;;19.75;17.75;;;;;;;;;;4899837;29;20040;-83
2023/04/18 01:56:28;;;;;;;18.33;16.58;;;;;;;;;;4899539;29;20017;-83
2023/04/18 01:58:53;;;;;;;17.60;16.05;;;;;;;;;;4899056;29;20058;-81
2023/04/18 02:01:19;;;;;;;19.30;17.52;;;;;;;;;;4872669;29;20046;-82
2023/04/18 02:03:44;;;;;;;17.85;16.23;;;;;;;;;;4880560;29;20005;-82
2023/04/18 02:06:10;;;;;;;19.70;17.75;;;;;;;;;;4875319;29;20030;-80
2023/04/18 02:08:35;;;;;;;19.95;17.85;;;;;;;;;;4864904;29;20017;-80
2023/04/18 02:11:00;;;;;;;20.52;18.73;;;;;;;;;;4863621;29;20048;-80
2023/04/18 02:13:26;;;;;;;18.98;17.33;;;;;;;;;;4866265;29;20025;-80
2023/04/18 02:15:51;;;;;;;20.08;18.27;;;;;;;;;;4867053;29;20034;-80
2023/04/18 02:18:17;;;;;;;17.63;15.90;;;;;;;;;;4856310;29;20021;-80
2023/04/18 02:20:42;;;;;;;21.98;19.73;;;;;;;;;;4867348;29;20093;-81
2023/04/18 02:23:08;;;;;;;20.13;18.13;;;;;;;;;;4871490;29;20113;-80
2023/04/18 02:25:33;;;;;;;20.48;18.58;;;;;;;;;;4875199;29;20021;-81
2023/04/18 02:27:59;;;;;;;16.75;15.38;;;;;;;;;;4876526;29;20047;-81
2023/04/18 02:30:25;;;;;;;18.50;16.95;;;;;;;;;;4858377;29;20053;-81
2023/04/18 02:32:51;;;;;;;20.80;18.90;;;;;;;;;;4872291;29;20198;-80
2023/04/18 02:35:17;;;;;;;19.00;17.23;;;;;;;;;;4871023;29;20054;-81
2023/04/18 02:37:43;;;;;;;16.95;15.60;;;;;;;;;;4872175;29;20029;-80
2023/04/18 02:40:08;;;;;;;20.25;18.17;;;;;;;;;;4867383;29;20021;-80
2023/04/18 02:42:35;;;;;;;18.20;16.77;;;;;;;;;;4870333;29;20093;-81
2023/04/18 02:45:00;;;;;;;17.73;16.00;;;;;;;;;;4872442;29;20025;-81
2023/04/18 02:47:26;;;;;;;17.48;15.98;;;;;;;;;;4871520;29;20025;-82
2023/04/18 02:49:52;;;;;;;17.80;16.15;;;;;;;;;;4880305;29;20412;-82
2023/04/18 02:52:17;;;;;;;19.00;17.38;;;;;;;;;;4878023;29;20037;-81
2023/04/18 02:54:44;;;;;;;16.98;15.48;;;;;;;;;;4876701;29;20033;-82
2023/04/18 02:57:11;;;;;;;19.83;18.13;;;;;;;;;;4848790;29;20054;-82
2023/04/18 02:59:36;;;;;;;20.25;18.30;;;;;;;;;;4877286;29;20030;-81
2023/04/18 03:02:02;;;;;;;18.05;16.52;;;;;;;;;;4863495;29;20072;-81
2023/04/18 03:04:27;;;;;;;20.73;18.70;;;;;;;;;;4879115;29;20006;-82
2023/04/18 03:06:54;;;;;;;22.27;20.08;;;;;;;;;;4880030;29;20025;-82
2023/04/18 03:09:20;;;;;;;19.23;17.42;;;;;;;;;;4880478;29;20048;-83
2023/04/18 03:11:47;;;;;;;23.70;21.42;;;;;;;;;;4880438;29;20025;-84
2023/04/18 03:14:12;;;;;;;21.30;19.25;;;;;;;;;;4880363;29;20021;-83
2023/04/18 03:16:38;;;;;;;21.60;19.70;;;;;;;;;;4880476;29;20413;-83
2023/04/18 03:19:04;;;;;;;23.92;21.80;;;;;;;;;;4853815;29;20022;-83
2023/04/18 03:21:31;;;;;;;18.50;16.90;;;;;;;;;;4845788;29;20038;-84
2023/04/18 03:23:56;;;;;;;20.90;19.00;;;;;;;;;;4846527;29;20120;-84
2023/04/18 03:26:23;;;;;;;24.17;21.35;;;;;;;;;;4861116;29;20041;-84
2023/04/18 03:28:50;;;;;;;21.90;19.65;;;;;;;;;;4880629;29;20010;-85
2023/04/18 03:31:19;;;;;;;21.73;19.75;;;;;;;;;;4879513;29;20054;-84
2023/04/18 03:33:44;;;;;;;19.67;17.67;;;;;;;;;;4862889;29;20025;-83
2023/04/18 03:36:24;;;;;;;24.70;22.10;;;;;;;;;;4864594;29;20036;-83
2023/04/18 03:38:50;;;;;;;22.33;20.13;;;;;;;;;;4878971;29;20029;-81
2023/04/18 03:41:18;;;;;;;22.25;20.20;;;;;;;;;;4860482;29;20053;-83
2023/04/18 03:43:45;;;;;;;20.60;18.70;;;;;;;;;;4875155;29;20022;-82
2023/04/18 03:46:11;;;;;;;20.08;18.17;;;;;;;;;;4882211;29;20048;-83
2023/04/18 03:48:37;;;;;;;23.02;20.83;;;;;;;;;;4882348;29;20021;-83
2023/04/18 03:51:05;;;;;;;22.17;19.48;;;;;;;;;;4866483;29;20022;-83
2023/04/18 03:53:30;;;;;;;21.42;19.42;;;;;;;;;;4865830;29;20173;-83
2023/04/18 03:55:56;;;;;;;21.27;19.15;;;;;;;;;;4867025;29;20033;-84
2023/04/18 03:58:22;;;;;;;22.05;19.95;;;;;;;;;;4852190;29;20137;-83
2023/04/18 04:00:50;;;;;;;21.67;19.63;;;;;;;;;;4882917;29;20041;-84
2023/04/18 04:03:16;;;;;;;23.45;21.25;;;;;;;;;;4867136;29;20093;-84
2023/04/18 04:05:41;;;;;;;20.95;18.75;;;;;;;;;;4868014;29;20037;-83
2023/04/18 04:08:07;;;;;;;20.88;18.88;;;;;;;;;;4882185;29;20026;-83
2023/04/18 04:10:33;;;;;;;20.50;18.58;;;;;;;;;;4882948;29;20041;-82
2023/04/18 04:12:58;;;;;;;23.10;20.70;;;;;;;;;;4893916;29;20018;-83
2023/04/18 04:15:24;;;;;;;18.70;16.88;;;;;;;;;;4883541;29;20029;-83
2023/04/18 04:17:49;;;;;;;19.85;18.05;;;;;;;;;;4867225;29;20064;-84
2023/04/18 04:20:21;;;;;;;21.23;19.15;;;;;;;;;;4866942;29;20049;-84
2023/04/18 04:22:47;;;;;;;19.02;17.15;;;;;;;;;;4866498;29;20022;-83
2023/04/18 04:25:12;;;;;;;16.73;15.32;;;;;;;;;;4884115;29;20049;-83
2023/04/18 04:27:38;;;;;;;16.13;14.68;;;;;;;;;;4866367;29;20043;-83
2023/04/18 04:30:04;;;;;;;17.50;15.77;;;;;;;;;;4866599;29;20065;-83
2023/04/18 04:32:29;;;;;;;18.90;17.27;;;;;;;;;;4882880;29;20022;-84
2023/04/18 04:34:55;;;;;;;19.67;17.90;;;;;;;;;;4866824;29;20059;-84
2023/04/18 04:37:21;;;;;;;21.27;19.23;;;;;;;;;;4867394;29;20037;-84
2023/04/18 04:39:52;;;;;;;18.15;16.42;;;;;;;;;;4883808;29;20013;-82
2023/04/18 04:42:18;;;;;;;20.85;18.65;;;;;;;;;;4866779;29;20033;-83
2023/04/18 04:44:44;;;;;;;18.52;16.83;;;;;;;;;;4882791;29;20029;-83
2023/04/18 04:47:10;;;;;;;17.52;16.00;;;;;;;;;;4865274;29;20026;-83
2023/04/18 04:49:35;;;;;;;18.48;16.92;;;;;;;;;;4882155;29;20026;-83
2023/04/18 04:52:01;;;;;;;17.35;15.65;;;;;;;;;;4882061;29;20029;-82
2023/04/18 04:54:27;;;;;;;15.73;14.23;;;;;;;;;;4865549;29;20021;-83
2023/04/18 04:56:52;;;;;;;16.40;14.90;;;;;;;;;;4864571;29;20110;-82
2023/04/18 04:59:18;;;;;;;17.27;15.68;;;;;;;;;;4881332;29;20032;-83
2023/04/18 05:01:45;;;;;;;17.00;15.20;;;;;;;;;;4847928;29;20021;-82
2023/04/18 05:04:11;;;;;;;17.58;14.85;;;;;;;;;;4867322;29;20025;-82
2023/04/18 05:06:36;;;;;;;16.33;14.90;;;;;;;;;;4882332;29;20020;-82
2023/04/18 05:09:02;;;;;;;15.23;13.93;;;;;;;;;;4880637;29;20020;-82
2023/04/18 05:11:27;;;;;;;14.77;13.32;;;;;;;;;;4878810;29;20034;-82
2023/04/18 05:13:53;;;;;;;14.65;13.35;;;;;;;;;;4881794;29;20456;-82
2023/04/18 05:16:19;;;;;;;14.98;13.68;;;;;;;;;;4882996;29;20021;-82
2023/04/18 05:18:44;;;;;;;14.57;13.35;;;;;;;;;;4883878;29;20009;-82
2023/04/18 05:21:09;;;;;;;15.05;13.68;;;;;;;;;;4866794;29;20025;-82
2023/04/18 05:23:35;;;;;;;14.15;12.95;;;;;;;;;;4884195;29;20025;-81
2023/04/18 05:28:36;;;;;;;14.50;13.30;;;;;;;;;;5480846;23;20045;-83
2023/04/18 05:33:36;;;;;;;12.25;11.25;;;;;;;;;;4944048;23;20033;-82
2023/04/18 05:36:02;;;;;;;11.13;10.23;;;;;;;;;;4920313;29;20031;-82
2023/04/18 05:38:27;;;;;;;12.13;11.13;;;;;;;;;;4920021;29;20000;-82
2023/04/18 05:40:54;;;;;;;15.10;13.68;;;;;;;;;;5056298;23;20071;-83
2023/04/18 05:43:20;;;;;;;14.45;11.98;;;;;;;;;;4918718;29;20044;-82
2023/04/18 05:45:46;;;;;;;13.80;12.55;;;;;;;;;;4917025;29;20039;-83
2023/04/18 05:48:14;;;;;;;14.35;12.85;;;;;;;;;;4892378;29;20021;-82
2023/04/18 05:50:39;;;;;;;14.60;13.18;;;;;;;;;;4883299;29;20021;-85
2023/04/18 05:53:07;;;;;;;12.88;11.68;;;;;;;;;;4903152;29;20092;-85
2023/04/18 05:55:35;;;;;;;13.30;11.95;;;;;;;;;;4887835;29;20036;-85
2023/04/18 05:58:01;;;;;;;13.53;12.23;;;;;;;;;;4914418;29;20576;-86
2023/04/18 06:00:28;;;;;;;13.69;12.44;;;;;;;;;;5140298;23;4499906;-83
2023/04/18 06:02:53;;;;;;;13.15;11.90;;;;;;;;;;4919331;29;20032;-86
2023/04/18 06:05:19;;;;;;;13.40;12.23;;;;;;;;;;4915514;29;20005;-84
2023/04/18 06:07:47;;;;;;;14.80;13.48;;;;;;;;;;4900132;29;20033;-85
2023/04/18 06:10:12;;;;;;;14.43;13.02;;;;;;;;;;4901480;29;20013;-87
2023/04/18 06:12:39;;;;;;;12.25;11.27;;;;;;;;;;4884211;29;20128;-86
2023/04/18 06:15:06;;;;;;;13.70;12.13;;;;;;;;;;4890675;29;20009;-84
2023/04/18 06:35:43;;;;;;;9.48;8.60;;;;;;;;;;5194500;23;20046;-84
2023/04/18 06:38:12;;;;;;;10.13;9.20;;;;;;;;;;4993573;23;20072;-83
2023/04/18 06:40:37;;;;;;;9.98;9.00;;;;;;;;;;4889185;29;20025;-83
2023/04/18 06:43:02;;;;;;;9.65;8.70;;;;;;;;;;4899156;29;20027;-84
2023/04/18 06:48:03;;;;;;;9.10;8.23;;;;;;;;;;5344425;23;20060;-86
2023/04/18 06:50:28;;;;;;;9.80;8.90;;;;;;;;;;4937815;29;20080;-85
2023/04/18 06:52:54;;;;;;;9.60;8.70;;;;;;;;;;4935099;29;20036;-85
2023/04/18 06:55:20;;;;;;;10.43;9.35;;;;;;;;;;4919647;29;20020;-83
2023/04/18 06:57:45;;;;;;;9.73;8.90;;;;;;;;;;4932751;29;20016;-84
2023/04/18 07:00:11;;;;;;;10.48;9.65;;;;;;;;;;4903819;29;20064;-85
2023/04/18 07:02:37;;;;;;;8.45;7.70;;;;;;;;;;4900098;29;20071;-82
2023/04/18 07:05:03;;;;;;;7.65;7.05;;;;;;;;;;4900137;29;20024;-84
2023/04/18 07:07:28;;;;;;;8.45;7.75;;;;;;;;;;4905689;29;20040;-81
2023/04/18 07:09:54;;;;;;;8.02;7.32;;;;;;;;;;4915647;29;20024;-84
2023/04/18 07:12:20;;;;;;;8.32;7.63;;;;;;;;;;4917813;29;20513;-84
2023/04/18 07:14:45;;;;;;;8.00;7.40;;;;;;;;;;4920208;29;20004;-83
2023/04/18 07:17:10;;;;;;;8.40;7.72;;;;;;;;;;4922242;29;20064;-83
2023/04/18 07:19:36;;;;;;;8.00;7.40;;;;;;;;;;4925346;29;20122;-83
2023/04/18 07:27:11;;;;;;;7.60;7.00;;;;;;;;;;5242937;23;20614;-82
2023/04/18 07:29:37;;;;;;;6.20;5.80;;;;;;;;;;4906356;29;20041;-83
2023/04/18 07:34:39;;;;;;;7.07;6.57;;;;;;;;;;5310392;23;20043;-81
2023/04/18 07:39:40;;;;;;;6.40;6.00;;;;;;;;;;5050824;23;19911;-82
2023/04/18 07:42:05;;;;;;;6.45;5.95;;;;;;;;;;4943301;29;20593;-84
2023/04/18 07:44:31;;;;;;;6.97;6.47;;;;;;;;;;4924316;29;20019;-83
2023/04/18 07:46:56;;;;;;;8.20;7.40;;;;;;;;;;4927200;29;20079;-82
2023/04/18 07:49:21;;;;;;;5.93;5.53;;;;;;;;;;4943903;29;20064;-82
2023/04/18 07:51:47;;;;;;;5.82;5.43;;;;;;;;;;4944042;29;20008;-83
2023/04/18 07:56:48;;;;;;;5.90;5.50;;;;;;;;;;4897866;29;20552;-84
2023/04/18 08:04:24;;;;;;;5.90;5.20;;;;;;;;;;5895578;23;20086;-86
2023/04/18 08:06:49;;;;;;;6.00;5.60;;;;;;;;;;4853099;29;20128;-85
2023/04/18 08:09:15;;;;;;;4.93;4.43;;;;;;;;;;4890205;29;20033;-85
2023/04/18 08:11:41;;;;;;;6.35;5.85;;;;;;;;;;4897799;29;20090;-82
2023/04/18 08:19:23;;;;;;;4.63;4.30;;;;;;;;;;4877828;27;20033;-80
2023/04/18 08:52:28;;;;;;;0.70;0.60;;;;;;;;;;5223865;23;20044;-83
2023/04/18 09:05:15;;;;;;;2.05;0.80;;;;;;;;;;5449436;23;19931;-81
2023/04/18 09:07:41;;;;;;;0.80;0.80;;;;;;;;;;4922062;29;20021;-83
2023/04/18 09:10:06;;;;;;;0.90;0.90;;;;;;;;;;4895080;29;20422;-84
2023/04/18 09:12:33;;;;;;;3.40;1.30;;;;;;;;;;5186124;23;20059;-87
2023/04/18 09:15:12;;;;;;;1.80;1.70;;;;;;;;;;4860886;29;20512;-88
2023/04/18 09:17:42;;;;;;;1.60;1.50;;;;;;;;;;4884174;29;20060;-87
2023/04/18 09:22:56;;;;;;;1.90;1.80;;;;;;;;;;5847605;23;20057;-88
2023/04/18 09:25:43;;;;;;;2.08;1.98;;;;;;;;;;4885057;29;20079;-89
2023/04/18 09:28:23;;;;;;;1.80;1.70;;;;;;;;;;4905088;29;20039;-88
2023/04/18 09:30:53;;;;;;;0.98;0.98;;;;;;;;;;4896669;29;20021;-89
2023/04/18 09:33:31;;;;;;;0.90;0.90;;;;;;;;;;4885500;29;20016;-89
2023/04/18 09:38:45;;;;;;;0.77;0.77;;;;;;;;;;5081319;23;20064;-90
2023/04/18 09:41:11;;;;;;;1.00;0.90;;;;;;;;;;5132423;23;20048;-85
2023/04/18 10:48:20;;;;;;;0.50;0.50;;;;;;;;;;4951870;23;20075;-82
2023/04/18 10:51:11;;;;;;;0.68;0.60;;;;;;;;;;5029899;23;20043;-81
2023/04/18 10:53:37;;;;;;;0.90;0.80;;;;;;;;;;4898889;29;20044;-81
2023/04/18 10:56:02;;;;;;;0.98;0.68;;;;;;;;;;4941303;23;20088;-84
2023/04/18 10:58:33;;;;;;;0.55;0.55;;;;;;;;;;4939255;29;20025;-84
2023/04/18 11:00:59;;;;;;;0.52;0.52;;;;;;;;;;4937245;29;20060;-82
2023/04/18 11:03:34;;;;;;;0.82;0.52;;;;;;;;;;4914713;29;20032;-82
2023/04/18 11:06:00;;;;;;;2.35;0.63;;;;;;;;;;4936472;29;20033;-84
2023/04/18 11:08:26;;;;;;;1.50;0.90;;;;;;;;;;4935193;29;20044;-83
2023/04/18 11:11:02;;;;;;;2.95;1.00;;;;;;;;;;4938657;29;20028;-83
2023/04/18 11:13:28;;;;;;;2.30;0.70;;;;;;;;;;4941299;29;20028;-83
2023/04/18 11:15:56;;;;;;;0.73;0.70;;;;;;;;;;4925420;29;20031;-82
2023/04/18 11:18:27;;;;;;;1.20;0.75;;;;;;;;;;4943013;29;20046;-82
2023/04/18 11:20:52;;;;;;;1.90;0.60;;;;;;;;;;4924799;29;20517;-82
2023/04/18 11:23:23;;;;;;;0.90;0.80;;;;;;;;;;4926164;29;20076;-83
2023/04/18 11:25:52;;;;;;;1.40;0.85;;;;;;;;;;4928945;29;20069;-84
2023/04/18 11:28:20;;;;;;;3.13;0.90;;;;;;;;;;4942550;23;20036;-84
2023/04/18 11:30:48;;;;;;;3.75;0.82;;;;;;;;;;4930932;29;20039;-84
2023/04/18 11:33:16;;;;;;;1.20;0.60;;;;;;;;;;4925355;29;20491;-80
2023/04/18 11:38:22;;;;;;;2.20;0.90;;;;;;;;;;4971540;23;19934;-83
2023/04/18 11:43:27;;;;;;;0.35;0.35;;;;;;;;;;4686914;27;20056;-83
2023/04/18 11:45:55;;;;;;;0.70;0.40;;;;;;;;;;4928351;29;20023;-82
2023/04/18 12:11:13;;;;;;;0.52;0.50;;;;;;;;;;4515131;23;20064;-81
2023/04/18 12:14:23;;;;;;;0.45;0.40;;;;;;;;;;5192021;23;20052;-82
2023/04/18 12:16:53;;;;;;;0.35;0.35;;;;;;;;;;4863560;29;20061;-84
2023/04/18 12:19:38;;;;;;;0.40;0.40;;;;;;;;;;4818480;29;20047;-82
2023/04/18 12:22:29;;;;;;;0.40;0.40;;;;;;;;;;4886306;29;20110;-81
2023/04/18 12:31:25;;;;;;;0.45;0.45;;;;;;;;;;4948076;29;20031;-81
2023/04/18 12:33:53;;;;;;;1.00;0.38;;;;;;;;;;5153613;23;20060;-81
2023/04/18 12:36:27;;;;;;;0.50;0.50;;;;;;;;;;4939451;29;20048;-82
2023/04/18 12:39:43;;;;;;;0.30;0.30;;;;;;;;;;1036043;26;20328;-82
2023/04/18 12:45:35;;;;;;;1.10;0.50;;;;;;;;;;5045511;23;20055;-81
2023/04/18 12:51:17;;;;;;;1.30;0.60;;;;;;;;;;5161453;23;20080;-85
2023/04/18 12:54:16;;;;;;;0.45;0.45;;;;;;;;;;5138547;23;20044;-86
2023/04/18 12:56:52;;;;;;;0.60;0.60;;;;;;;;;;4901093;29;20036;-85
2023/04/18 13:07:32;;;;;;;0.40;0.40;;;;;;;;;;4952496;29;20072;-84
2023/04/18 13:10:20;;;;;;;0.32;0.32;;;;;;;;;;4921441;29;20067;-84
2023/04/18 13:12:52;;;;;;;0.40;0.40;;;;;;;;;;4946100;29;20045;-85
2023/04/18 13:15:21;;;;;;;1.00;0.70;;;;;;;;;;4947377;29;20027;-85
2023/04/18 13:21:13;;;;;;;1.77;0.88;;;;;;;;;;4931678;29;20035;-87
2023/04/18 13:24:12;;;;;;;1.38;1.05;;;;;;;;;;4949503;29;20090;-83
2023/04/18 13:27:25;;;;;;;1.05;0.90;;;;;;;;;;4954918;29;20031;-84
2023/04/18 13:30:17;;;;;;;0.90;0.90;;;;;;;;;;4937851;29;20023;-86
2023/04/18 13:32:49;;;;;;;0.80;0.80;;;;;;;;;;5031369;23;20065;-80
2023/04/18 13:38:17;;;;;;;0.90;0.70;;;;;;;;;;4917000;29;20086;-81
2023/04/18 13:40:43;;;;;;;0.70;0.65;;;;;;;;;;4948228;23;20026;-81
2023/04/18 13:43:11;;;;;;;5.13;0.68;;;;;;;;;;4904720;29;20043;-81
2023/04/18 13:45:47;;;;;;;0.30;0.30;;;;;;;;;;4936974;23;20063;-84
2023/04/18 13:48:12;;;;;;;0.30;0.30;;;;;;;;;;4934216;29;20056;-83
2023/04/18 13:50:39;;;;;;;0.10;0.10;;;;;;;;;;4916960;29;20019;-83
2023/04/18 13:53:06;;;;;;;0.30;0.30;;;;;;;;;;4901117;29;20032;-82
2023/04/18 13:55:31;;;;;;;0.30;0.10;;;;;;;;;;4914943;29;20017;-84
2023/04/18 13:57:56;;;;;;;0.00;0.00;;;;;;;;;;5294067;23;20026;-83
2023/04/18 14:08:07;;;;;;;1.30;0.47;;;;;;;;;;4724052;27;20036;-81
2023/04/18 14:10:38;;;;;;;0.08;0.03;;;;;;;;;;4887748;29;20013;-80
2023/04/18 14:13:05;;;;;;;0.10;0.10;;;;;;;;;;4879967;29;20024;-80
2023/04/18 14:15:31;;;;;;;0.28;0.15;;;;;;;;;;4879714;29;20009;-80
2023/04/18 14:17:59;;;;;;;0.10;0.10;;;;;;;;;;4880438;29;20551;-81
2023/04/18 14:20:32;;;;;;;0.23;0.10;;;;;;;;;;4863191;29;20488;-79
2023/04/18 14:22:58;;;;;;;1.58;0.10;;;;;;;;;;4869074;29;20057;-81
2023/04/18 14:25:26;;;;;;;0.03;0.00;;;;;;;;;;4876856;29;20025;-80
2023/04/18 14:28:02;;;;;;;0.98;0.00;;;;;;;;;;4888482;29;20013;-80
2023/04/18 14:30:30;;;;;;;1.35;0.08;;;;;;;;;;4901910;29;20019;-82
2023/04/18 14:32:56;;;;;;;0.00;0.00;;;;;;;;;;4886723;29;20023;-83
2023/04/18 14:35:21;;;;;;;0.32;0.10;;;;;;;;;;4902812;29;20041;-83
2023/04/18 14:38:05;;;;;;;0.10;0.00;;;;;;;;;;4887425;29;20009;-84
2023/04/18 14:40:38;;;;;;;0.10;0.10;;;;;;;;;;4890733;29;20028;-84
2023/04/18 14:43:06;;;;;;;0.55;0.10;;;;;;;;;;4880703;29;20029;-83
2023/04/18 14:45:42;;;;;;;0.00;0.00;;;;;;;;;;4898933;29;20021;-84
2023/04/18 14:48:08;;;;;;;1.90;0.10;;;;;;;;;;4895566;29;20029;-84
2023/04/18 14:50:37;;;;;;;0.08;0.08;;;;;;;;;;4880829;29;20054;-82
2023/04/18 14:53:18;;;;;;;0.10;0.10;;;;;;;;;;4878951;29;20041;-84
2023/04/18 14:55:45;;;;;;;0.20;0.20;;;;;;;;;;4863295;29;20098;-83
2023/04/18 14:58:16;;;;;;;0.10;0.10;;;;;;;;;;4863186;29;20060;-84
2023/04/18 15:00:42;;;;;;;0.00;0.00;;;;;;;;;;4856702;29;20030;-83
2023/04/18 15:03:07;;;;;;;0.10;0.10;;;;;;;;;;4858808;29;20021;-83
2023/04/18 15:05:45;;;;;;;0.15;0.15;;;;;;;;;;4859401;29;20034;-83
2023/04/18 15:08:14;;;;;;;0.10;0.10;;;;;;;;;;4858774;29;20072;-84
2023/04/18 15:10:41;;;;;;;0.10;0.10;;;;;;;;;;4858363;29;20081;-84
2023/04/18 15:13:10;;;;;;;;;;;;;;;;;;4871135;29;20037;-83
2023/04/18 15:15:36;;;;;;;0.10;0.10;;;;;;;;;;4870396;29;19908;-83
2023/04/18 15:18:03;;;;;;;0.32;0.10;;;;;;;;;;4859463;29;20025;-84
2023/04/18 15:20:29;;;;;;;0.20;0.10;;;;;;;;;;4860403;29;20046;-84
2023/04/18 15:22:55;;;;;;;0.20;0.10;;;;;;;;;;4857553;29;20097;-85
2023/04/18 15:25:21;;;;;;;0.10;0.10;;;;;;;;;;4856357;29;20034;-84
2023/04/18 15:27:46;;;;;;;0.10;0.10;;;;;;;;;;4840790;29;20026;-81
2023/04/18 15:30:12;;;;;;;0.00;0.00;;;;;;;;;;4848185;29;20068;-83
2023/04/18 15:32:41;;;;;;;0.00;0.00;;;;;;;;;;4860897;29;20045;-84
2023/04/18 15:35:07;;;;;;;0.20;0.10;;;;;;;;;;4852396;29;20033;-83
2023/04/18 15:37:32;;;;;;;0.10;0.10;;;;;;;;;;4863278;29;20031;-82
2023/04/18 15:39:58;;;;;;;0.10;0.00;;;;;;;;;;4883320;29;20037;-82
2023/04/18 15:42:23;;;;;;;0.10;0.10;;;;;;;;;;4863295;29;20133;-83
2023/04/18 15:44:49;;;;;;;0.52;0.17;;;;;;;;;;4880585;29;20527;-82
2023/04/18 15:47:14;;;;;;;0.03;0.00;;;;;;;;;;4863576;29;20082;-82
2023/04/18 15:49:40;;;;;;;0.10;0.10;;;;;;;;;;4863655;29;20026;-83
2023/04/18 15:52:05;;;;;;;0.10;0.10;;;;;;;;;;4875144;29;20026;-81
2023/04/18 15:54:31;;;;;;;0.10;0.10;;;;;;;;;;4861961;29;20117;-83
2023/04/18 15:56:57;;;;;;;0.10;0.10;;;;;;;;;;4863276;29;20029;-82
2023/04/18 15:59:22;;;;;;;0.17;0.17;;;;;;;;;;4862235;29;20030;-83
2023/04/18 16:01:48;;;;;;;0.30;0.10;;;;;;;;;;4873694;29;20037;-83
2023/04/18 16:04:13;;;;;;;0.47;0.30;;;;;;;;;;4861096;29;20020;-81
2023/04/18 16:06:39;;;;;;;0.13;0.13;;;;;;;;;;4857129;29;20065;-81
2023/04/18 16:09:05;;;;;;;0.20;0.20;;;;;;;;;;4846262;29;20022;-81
2023/04/18 16:11:31;;;;;;;0.90;0.80;;;;;;;;;;4858404;29;20026;-81
2023/04/18 16:13:56;;;;;;;1.60;0.70;;;;;;;;;;4859824;29;20036;-81
2023/04/18 16:16:22;;;;;;;0.77;0.40;;;;;;;;;;4878683;29;20008;-82
2023/04/18 16:18:47;;;;;;;0.30;0.30;;;;;;;;;;4866309;29;20035;-81
2023/04/18 16:21:16;;;;;;;3.92;0.40;;;;;;;;;;4850872;29;20037;-82
2023/04/18 16:23:41;;;;;;;0.20;0.20;;;;;;;;;;4872641;29;20012;-82
2023/04/18 16:26:07;;;;;;;0.30;0.20;;;;;;;;;;4859844;29;20021;-82
2023/04/18 16:28:36;;;;;;;0.52;0.20;;;;;;;;;;4853112;29;20022;-81
2023/04/18 16:31:05;;;;;;;0.10;0.10;;;;;;;;;;4847899;29;20054;-80
2023/04/18 16:33:30;;;;;;;0.10;0.10;;;;;;;;;;4873300;29;20036;-81
2023/04/18 16:35:57;;;;;;;0.20;0.20;;;;;;;;;;4856710;29;20546;-81
2023/04/18 16:38:24;;;;;;;1.85;0.13;;;;;;;;;;4879472;29;20032;-83
2023/04/18 16:40:59;;;;;;;0.20;0.20;;;;;;;;;;4880054;29;20094;-82
2023/04/18 16:43:27;;;;;;;0.17;0.17;;;;;;;;;;4876066;29;20022;-82
2023/04/18 16:45:56;;;;;;;0.20;0.20;;;;;;;;;;4870614;29;20018;-84
2023/04/18 16:48:22;;;;;;;0.55;0.20;;;;;;;;;;4850043;29;20473;-83
2023/04/18 16:50:49;;;;;;;0.10;0.10;;;;;;;;;;4869745;29;20029;-83
2023/04/18 16:53:14;;;;;;;0.22;0.15;;;;;;;;;;4863475;29;20017;-82
2023/04/18 16:55:41;;;;;;;0.30;0.20;;;;;;;;;;4855927;29;20048;-82
2023/04/18 16:58:06;;;;;;;0.13;0.13;;;;;;;;;;4874215;29;20045;-83
2023/04/18 17:00:32;;;;;;;0.15;0.10;;;;;;;;;;4869233;29;20009;-83
2023/04/18 17:02:57;;;;;;;0.03;0.03;;;;;;;;;;4866526;29;20002;-83
2023/04/18 17:05:24;;;;;;;0.10;0.10;;;;;;;;;;4863271;29;20025;-82
2023/04/18 17:07:50;;;;;;;0.10;0.10;;;;;;;;;;4874639;29;20067;-83
2023/04/18 17:10:16;;;;;;;0.20;0.20;;;;;;;;;;4858907;29;20009;-82
2023/04/18 17:12:42;;;;;;;0.10;0.10;;;;;;;;;;4851624;29;20026;-84
2023/04/18 17:15:07;;;;;;;0.20;0.20;;;;;;;;;;4863955;29;20041;-82
2023/04/18 17:17:34;;;;;;;0.20;0.20;;;;;;;;;;4866371;29;20018;-82
2023/04/18 17:20:00;;;;;;;0.20;0.20;;;;;;;;;;4936662;23;20049;-83
2023/04/18 17:22:25;;;;;;;0.10;0.10;;;;;;;;;;4917140;29;20107;-83
2023/04/18 17:24:51;;;;;;;0.13;0.13;;;;;;;;;;4918099;29;20045;-83
2023/04/18 17:27:16;;;;;;;0.40;0.20;;;;;;;;;;4919473;29;20021;-82
2023/04/18 17:29:42;;;;;;;0.35;0.20;;;;;;;;;;4917926;29;20033;-82
2023/04/18 17:32:07;;;;;;;0.10;0.10;;;;;;;;;;4917646;29;20035;-83
2023/04/18 17:34:33;;;;;;;1.70;0.20;;;;;;;;;;4919369;29;20075;-81
2023/04/18 17:36:58;;;;;;;1.25;0.30;;;;;;;;;;4904588;29;20017;-82
2023/04/18 17:39:23;;;;;;;0.52;0.30;;;;;;;;;;4922435;29;20020;-82
2023/04/18 17:41:49;;;;;;;0.40;0.40;;;;;;;;;;4923074;29;20076;-83
2023/04/18 17:44:15;;;;;;;0.30;0.30;;;;;;;;;;4922632;29;20021;-83
2023/04/18 17:46:40;;;;;;;0.40;0.40;;;;;;;;;;4923146;29;20016;-82
2023/04/18 17:49:05;;;;;;;0.52;0.45;;;;;;;;;;4922762;29;20025;-83
2023/04/18 17:54:00;;;;;;;;;;;;;;;;;;4884767;29;20065;-83
2023/04/18 17:56:26;;;;;;;0.50;0.40;;;;;;;;;;4886086;29;19932;-83
2023/04/18 17:58:51;;;;;;;2.75;2.40;;;;;;;;;;4884239;29;20270;-81
2023/04/18 18:01:17;;;;;;;9.32;7.22;;;;;;;;;;4935761;23;20055;-81
2023/04/18 18:03:43;;;;;;;11.25;7.38;;;;;;;;;;4899484;29;20044;-82
2023/04/18 18:06:13;;;;;;;4.15;3.72;;;;;;;;;;4914192;29;20084;-82
2023/04/18 18:08:44;;;;;;;1.60;1.23;;;;;;;;;;4915065;29;20532;-82
2023/04/18 18:11:09;;;;;;;1.95;1.70;;;;;;;;;;4899001;29;20013;-82
2023/04/18 18:13:35;;;;;;;3.13;2.85;;;;;;;;;;4917012;29;20016;-82
2023/04/18 18:16:01;;;;;;;2.53;2.33;;;;;;;;;;4913768;29;20052;-82
2023/04/18 18:18:32;;;;;;;2.92;2.20;;;;;;;;;;4918355;29;20040;-83
2023/04/18 18:20:58;;;;;;;4.18;3.78;;;;;;;;;;4917393;29;20077;-83
2023/04/18 18:23:23;;;;;;;3.92;3.50;;;;;;;;;;4901833;29;20036;-82
2023/04/18 18:25:49;;;;;;;3.05;2.72;;;;;;;;;;4902669;29;20143;-82
2023/04/18 18:28:15;;;;;;;4.68;3.42;;;;;;;;;;4917438;29;20020;-82
2023/04/18 18:30:42;;;;;;;5.30;3.75;;;;;;;;;;4901626;29;20033;-82
2023/04/18 18:33:08;;;;;;;4.20;3.60;;;;;;;;;;4901127;29;20027;-82
2023/04/18 18:35:33;;;;;;;2.10;1.90;;;;;;;;;;4900819;29;20026;-82
2023/04/18 18:37:59;;;;;;;1.50;1.40;;;;;;;;;;4932443;29;20085;-83
2023/04/18 18:40:25;;;;;;;1.35;1.10;;;;;;;;;;4927055;29;20024;-83
2023/04/18 18:42:53;;;;;;;1.80;1.38;;;;;;;;;;4901046;29;20039;-82
2023/04/18 18:45:20;;;;;;;1.40;0.80;;;;;;;;;;4892400;29;20037;-83
2023/04/18 18:47:45;;;;;;;1.27;1.00;;;;;;;;;;4888960;29;20036;-83
2023/04/18 18:50:11;;;;;;;1.00;0.80;;;;;;;;;;4903431;29;20386;-83
2023/04/18 18:52:39;;;;;;;0.80;0.80;;;;;;;;;;4897003;29;20122;-82
2023/04/18 18:55:05;;;;;;;1.40;1.30;;;;;;;;;;4914400;29;20032;-82
2023/04/18 18:57:30;;;;;;;1.15;1.05;;;;;;;;;;4884354;29;20064;-81
2023/04/18 18:59:56;;;;;;;3.70;3.28;;;;;;;;;;4905638;29;20024;-81
2023/04/18 19:02:21;;;;;;;2.47;2.25;;;;;;;;;;4911024;29;20059;-82
2023/04/18 19:04:47;;;;;;;0.73;0.40;;;;;;;;;;4911110;29;20020;-83
2023/04/18 19:07:12;;;;;;;0.90;0.90;;;;;;;;;;4898479;29;20011;-83
2023/04/18 19:09:38;;;;;;;0.50;0.50;;;;;;;;;;4909917;29;20048;-82
2023/04/18 19:12:03;;;;;;;0.85;0.55;;;;;;;;;;4906249;29;20013;-81
2023/04/18 19:14:29;;;;;;;1.05;0.50;;;;;;;;;;4906821;29;20048;-81